createdAt,value
2018-07-29T00:00:25.421Z,53.20
2018-07-29T00:02:54.257Z,53.60
2018-07-29T00:05:23.111Z,52.80
2018-07-29T00:07:52.183Z,55.00
2018-07-29T00:10:21.108Z,53.30
2018-07-29T00:12:49.947Z,52.70
2018-07-29T00:15:18.849Z,52.60
2018-07-29T00:17:47.727Z,53.30
2018-07-29T00:20:16.583Z,51.30
2018-07-29T00:22:45.423Z,50.60
2018-07-29T00:25:14.303Z,50.60
2018-07-29T00:27:43.114Z,50.70
2018-07-29T00:30:11.914Z,50.00
2018-07-29T00:32:40.784Z,50.00
2018-07-29T00:35:09.645Z,49.20
2018-07-29T00:37:38.436Z,48.20
2018-07-29T00:40:07.296Z,48.00
2018-07-29T00:42:36.328Z,47.10
2018-07-29T00:45:06.268Z,48.40
2018-07-29T00:47:35.203Z,45.30
2018-07-29T00:50:04.547Z,44.40
2018-07-29T00:52:33.367Z,44.40
2018-07-29T00:55:02.317Z,38.80
2018-07-29T00:57:31.142Z,37.60
2018-07-29T00:59:59.942Z,37.60
2018-07-29T01:02:28.774Z,36.50
2018-07-29T01:04:57.658Z,33.60
2018-07-29T01:07:26.504Z,32.30
2018-07-29T01:09:55.604Z,29.60
2018-07-29T01:12:24.415Z,28.20
2018-07-29T01:14:53.280Z,26.00
2018-07-29T01:17:22.147Z,26.20
2018-07-29T01:19:51.017Z,26.10
2018-07-29T01:22:19.872Z,26.20
2018-07-29T01:24:48.719Z,26.20
2018-07-29T01:27:17.571Z,26.20
2018-07-29T01:29:46.497Z,26.40
2018-07-29T01:32:15.419Z,26.20
2018-07-29T01:34:44.253Z,26.70
2018-07-29T01:37:13.098Z,29.60
2018-07-29T01:39:41.955Z,31.20
2018-07-29T01:42:10.751Z,33.50
2018-07-29T01:44:39.566Z,35.00
2018-07-29T01:47:08.668Z,37.20
2018-07-29T01:49:37.676Z,37.20
2018-07-29T01:52:06.574Z,38.50
2018-07-29T01:54:35.464Z,39.70
2018-07-29T01:57:04.266Z,41.10
2018-07-29T01:59:33.111Z,41.20
2018-07-29T02:02:01.947Z,40.70
2018-07-29T02:04:30.824Z,41.60
2018-07-29T02:06:59.647Z,45.30
2018-07-29T02:09:28.509Z,45.90
2018-07-29T02:11:57.392Z,48.30
2018-07-29T02:14:26.244Z,48.00
2018-07-29T02:16:55.075Z,48.90
2018-07-29T02:19:23.990Z,48.50
2018-07-29T02:21:52.847Z,47.50
2018-07-29T02:24:21.643Z,46.00
2018-07-29T02:26:50.468Z,46.00
2018-07-29T02:29:19.282Z,43.60
2018-07-29T02:31:48.158Z,40.00
2018-07-29T02:34:16.940Z,48.00
2018-07-29T02:36:45.805Z,49.30
2018-07-29T02:39:14.640Z,55.10
2018-07-29T02:41:43.580Z,55.70
2018-07-29T02:44:12.461Z,49.40
2018-07-29T02:46:41.292Z,56.40
2018-07-29T02:49:10.132Z,51.70
2018-07-29T02:51:39.011Z,55.70
2018-07-29T02:54:07.851Z,58.10
2018-07-29T02:56:36.651Z,56.80
2018-07-29T02:59:05.774Z,57.70
2018-07-29T03:01:34.657Z,59.70
2018-07-29T03:04:03.546Z,63.00
2018-07-29T03:06:32.378Z,64.60
2018-07-29T03:09:01.207Z,65.00
2018-07-29T03:11:30.035Z,64.20
2018-07-29T03:13:58.902Z,61.80
2018-07-29T03:16:27.752Z,62.30
2018-07-29T03:18:56.547Z,61.00
2018-07-29T03:21:25.400Z,58.90
2018-07-29T03:23:54.248Z,60.70
2018-07-29T03:26:23.129Z,60.10
2018-07-29T03:28:51.978Z,60.50
2018-07-29T03:31:20.824Z,61.90
2018-07-29T03:33:49.618Z,61.80
2018-07-29T03:36:18.465Z,61.90
2018-07-29T03:38:47.331Z,62.00
2018-07-29T03:41:16.220Z,62.00
2018-07-29T03:43:45.026Z,62.00
2018-07-29T03:46:13.889Z,62.00
2018-07-29T03:48:42.756Z,60.60
2018-07-29T03:51:11.575Z,63.00
2018-07-29T03:53:40.445Z,61.80
2018-07-29T03:56:09.345Z,60.80
2018-07-29T03:58:38.179Z,61.60
2018-07-29T04:01:07.034Z,61.50
2018-07-29T04:03:35.891Z,61.50
2018-07-29T04:06:04.691Z,61.50
2018-07-29T04:08:33.533Z,62.60
2018-07-29T04:11:02.360Z,62.70
2018-07-29T04:13:31.222Z,63.90
2018-07-29T04:16:00.083Z,64.90
2018-07-29T04:18:29.000Z,64.80
2018-07-29T04:20:57.925Z,64.60
2018-07-29T04:23:26.731Z,64.60
2018-07-29T04:25:55.555Z,63.70
2018-07-29T04:28:24.366Z,64.00
2018-07-29T04:30:53.212Z,64.40
2018-07-29T04:33:22.026Z,65.50
2018-07-29T04:35:50.839Z,66.20
2018-07-29T04:38:19.696Z,65.00
2018-07-29T04:40:48.524Z,65.70
2018-07-29T04:43:17.341Z,65.10
2018-07-29T04:45:46.182Z,64.80
2018-07-29T04:48:15.065Z,64.30
2018-07-29T04:50:43.908Z,63.80
2018-07-29T04:53:12.740Z,63.90
2018-07-29T04:55:41.600Z,63.00
2018-07-29T05:00:39.121Z,62.30
2018-07-29T05:03:07.939Z,62.30
2018-07-29T05:05:36.849Z,61.20
2018-07-29T05:08:06.020Z,61.00
2018-07-29T05:10:34.877Z,59.50
2018-07-29T05:13:03.707Z,58.30
2018-07-29T05:15:32.536Z,57.40
2018-07-29T05:18:01.407Z,57.20
2018-07-29T05:20:30.247Z,57.10
2018-07-29T05:22:59.065Z,57.90
2018-07-29T05:25:27.954Z,57.40
2018-07-29T05:27:56.823Z,55.70
2018-07-29T05:30:25.646Z,56.20
2018-07-29T05:32:54.504Z,53.90
2018-07-29T05:35:23.348Z,53.80
2018-07-29T05:37:52.262Z,51.90
2018-07-29T05:40:21.136Z,49.60
2018-07-29T05:42:49.968Z,50.70
2018-07-29T05:45:18.868Z,50.90
2018-07-29T05:47:47.698Z,50.60
2018-07-29T05:50:16.581Z,50.00
2018-07-29T05:52:45.429Z,49.80
2018-07-29T05:55:14.284Z,48.70
2018-07-29T05:57:43.132Z,48.40
2018-07-29T06:00:12.005Z,48.30
2018-07-29T06:02:40.867Z,48.00
2018-07-29T06:05:09.775Z,46.60
2018-07-29T06:07:38.576Z,47.40
2018-07-29T06:10:08.492Z,46.90
2018-07-29T06:12:37.805Z,46.50
2018-07-29T06:15:07.677Z,45.90
2018-07-29T06:17:37.534Z,47.10
2018-07-29T06:20:09.324Z,45.80
2018-07-29T06:22:38.510Z,45.80
2018-07-29T06:25:07.861Z,45.00
2018-07-29T06:27:37.108Z,40.80
2018-07-29T06:30:06.499Z,41.20
2018-07-29T06:32:35.505Z,40.10
2018-07-29T06:35:04.579Z,39.40
2018-07-29T06:37:33.456Z,38.10
2018-07-29T06:40:02.276Z,37.10
2018-07-29T06:42:31.082Z,36.40
2018-07-29T06:44:59.960Z,34.70
2018-07-29T06:47:28.819Z,32.60
2018-07-29T06:49:57.635Z,31.00
2018-07-29T06:52:26.511Z,31.70
2018-07-29T06:54:55.307Z,30.60
2018-07-29T06:57:24.118Z,28.70
2018-07-29T06:59:53.007Z,29.00
2018-07-29T07:02:21.911Z,28.90
2018-07-29T07:04:50.695Z,30.30
2018-07-29T07:07:19.525Z,30.70
2018-07-29T07:09:48.306Z,31.10
2018-07-29T07:12:17.204Z,32.80
2018-07-29T07:14:46.060Z,32.60
2018-07-29T07:17:14.901Z,31.70
2018-07-29T07:19:43.751Z,32.80
2018-07-29T07:22:12.584Z,33.00
2018-07-29T07:24:41.466Z,32.80
2018-07-29T07:27:10.377Z,32.80
2018-07-29T07:29:39.191Z,31.60
2018-07-29T07:32:08.069Z,29.70
2018-07-29T07:34:36.922Z,30.50
2018-07-29T07:37:06.244Z,30.10
2018-07-29T07:39:35.074Z,29.50
2018-07-29T07:42:03.948Z,30.10
2018-07-29T07:44:32.762Z,29.50
2018-07-29T07:47:01.603Z,29.70
2018-07-29T07:49:30.470Z,29.50
2018-07-29T07:51:59.326Z,27.40
2018-07-29T07:54:28.319Z,27.30
2018-07-29T07:56:57.167Z,28.00
2018-07-29T07:59:26.015Z,27.60
2018-07-29T08:01:54.904Z,27.60
2018-07-29T08:04:23.749Z,27.60
2018-07-29T08:06:52.632Z,27.90
2018-07-29T08:09:21.480Z,25.70
2018-07-29T08:11:50.328Z,25.30
2018-07-29T08:14:19.184Z,24.60
2018-07-29T08:16:48.047Z,25.30
2018-07-29T08:19:16.911Z,23.70
2018-07-29T08:21:45.761Z,23.90
2018-07-29T08:24:14.611Z,23.20
2018-07-29T08:26:43.435Z,22.40
2018-07-29T08:29:12.272Z,20.00
2018-07-29T08:31:41.100Z,19.20
2018-07-29T08:34:09.935Z,19.70
2018-07-29T08:36:38.722Z,20.30
2018-07-29T08:39:10.537Z,19.10
2018-07-29T08:41:39.565Z,18.10
2018-07-29T08:44:08.425Z,17.80
2018-07-29T08:46:37.450Z,17.50
2018-07-29T08:49:06.284Z,18.00
2018-07-29T08:51:35.465Z,18.00
2018-07-29T08:54:04.333Z,17.90
2018-07-29T08:56:33.336Z,17.80
2018-07-29T08:59:02.183Z,18.80
2018-07-29T09:01:31.041Z,19.70
2018-07-29T09:04:00.001Z,19.20
2018-07-29T09:06:28.824Z,19.90
2018-07-29T09:08:57.664Z,19.20
2018-07-29T09:11:26.574Z,17.90
2018-07-29T09:13:55.411Z,18.00
2018-07-29T09:16:24.273Z,17.40
2018-07-29T09:18:53.196Z,17.80
2018-07-29T09:21:22.049Z,18.00
2018-07-29T09:23:51.147Z,18.00
2018-07-29T09:26:20.141Z,18.10
2018-07-29T09:28:48.943Z,18.20
2018-07-29T09:31:17.760Z,18.10
2018-07-29T09:33:46.589Z,17.90
2018-07-29T09:36:15.441Z,16.20
2018-07-29T09:38:44.319Z,16.30
2018-07-29T09:41:13.164Z,15.70
2018-07-29T09:43:42.231Z,13.80
2018-07-29T09:46:11.084Z,14.10
2018-07-29T09:48:39.940Z,14.30
2018-07-29T09:51:08.788Z,14.40
2018-07-29T09:53:37.869Z,14.00
2018-07-29T09:56:06.708Z,12.50
2018-07-29T09:58:35.591Z,12.40
2018-07-29T10:01:10.840Z,11.90
2018-07-29T10:03:40.936Z,11.10
2018-07-29T10:06:09.771Z,11.00
2018-07-29T10:08:38.761Z,10.30
2018-07-29T10:11:07.757Z,10.30
2018-07-29T10:13:36.647Z,11.00
2018-07-29T10:16:05.688Z,9.80
2018-07-29T10:18:34.527Z,8.40
2018-07-29T10:21:03.396Z,8.70
2018-07-29T10:23:32.215Z,8.20
2018-07-29T10:26:01.051Z,8.10
2018-07-29T10:28:29.852Z,7.60
2018-07-29T10:30:58.695Z,6.70
2018-07-29T10:35:56.202Z,6.10
2018-07-29T10:38:25.076Z,5.50
2018-07-29T10:40:53.969Z,5.40
2018-07-29T10:43:22.792Z,5.90
2018-07-29T10:45:51.669Z,4.70
2018-07-29T10:48:20.577Z,4.00
2018-07-29T10:50:49.432Z,3.50
2018-07-29T10:53:18.224Z,4.10
2018-07-29T10:55:47.087Z,3.90
2018-07-29T10:58:15.898Z,4.20
2018-07-29T11:00:44.729Z,2.80
2018-07-29T11:03:13.640Z,2.10
2018-07-29T11:05:42.460Z,2.00
2018-07-29T11:08:11.332Z,2.10
2018-07-29T11:10:40.138Z,1.30
2018-07-29T11:13:09.015Z,1.00
2018-07-29T11:15:37.852Z,1.00
2018-07-29T11:18:06.668Z,1.00
2018-07-29T11:20:35.526Z,1.00
2018-07-29T11:23:04.336Z,1.00
2018-07-29T11:25:33.185Z,1.00
2018-07-29T11:28:02.036Z,1.00
2018-07-29T11:30:30.895Z,1.00
2018-07-29T11:33:01.783Z,1.00
2018-07-29T11:35:30.620Z,1.00
2018-07-29T11:37:59.477Z,1.00
2018-07-29T11:40:28.327Z,1.00
2018-07-29T11:42:57.166Z,1.00
2018-07-29T11:45:26.027Z,1.00
2018-07-29T11:47:55.029Z,1.00
2018-07-29T11:50:23.957Z,1.00
2018-07-29T11:52:52.775Z,1.00
2018-07-29T11:55:21.558Z,1.00
2018-07-29T11:57:50.554Z,1.00
2018-07-29T12:00:19.324Z,1.00
2018-07-29T12:02:48.210Z,1.00
2018-07-29T12:05:16.966Z,1.00
2018-07-29T12:07:45.796Z,1.00
2018-07-29T12:12:44.298Z,1.00
2018-07-29T12:15:13.144Z,1.00
2018-07-29T12:17:41.985Z,1.00
2018-07-29T12:20:10.766Z,1.00
2018-07-29T12:22:39.640Z,1.00
2018-07-29T12:25:08.459Z,1.00
2018-07-29T12:27:37.282Z,1.00
2018-07-29T12:30:06.919Z,1.00
2018-07-29T12:32:35.767Z,1.00
2018-07-29T12:35:06.679Z,1.00
2018-07-29T12:37:35.485Z,1.00
2018-07-29T12:40:04.499Z,1.00
2018-07-29T12:42:33.347Z,1.00
2018-07-29T12:45:02.215Z,1.00
2018-07-29T12:47:31.068Z,1.00
2018-07-29T12:49:59.938Z,1.00
2018-07-29T12:54:57.416Z,1.00
2018-07-29T12:57:26.302Z,1.00
2018-07-29T12:59:55.119Z,1.00
2018-07-29T13:02:23.985Z,1.00
2018-07-29T13:04:52.775Z,1.00
2018-07-29T13:07:21.593Z,1.00
2018-07-29T13:09:50.795Z,1.00
2018-07-29T13:12:19.674Z,1.00
2018-07-29T13:14:48.496Z,1.00
2018-07-29T13:17:17.576Z,1.00
2018-07-29T13:19:47.128Z,1.00
2018-07-29T13:22:16.121Z,1.00
2018-07-29T13:24:45.245Z,1.00
2018-07-29T13:27:20.587Z,1.00
2018-07-29T13:29:49.535Z,1.00
2018-07-29T13:32:19.089Z,1.00
2018-07-29T13:34:48.137Z,1.00
2018-07-29T13:37:17.129Z,1.00
2018-07-29T13:39:46.100Z,1.00
2018-07-29T13:42:14.883Z,1.00
2018-07-29T13:44:43.720Z,1.00
2018-07-29T13:47:12.541Z,1.00
2018-07-29T13:49:41.362Z,1.00
2018-07-29T13:52:10.204Z,1.00
2018-07-29T13:54:39.061Z,1.00
2018-07-29T13:57:07.899Z,1.00
2018-07-29T13:59:36.711Z,1.00
2018-07-29T14:02:05.518Z,1.00
2018-07-29T14:04:34.509Z,1.00
2018-07-29T14:07:05.155Z,1.00
2018-07-29T14:09:34.068Z,1.00
2018-07-29T14:12:02.925Z,1.00
2018-07-29T14:14:31.784Z,1.00
2018-07-29T14:17:00.633Z,1.00
2018-07-29T14:19:29.576Z,1.00
2018-07-29T14:21:58.449Z,1.00
2018-07-29T14:26:57.165Z,1.00
2018-07-29T14:29:26.024Z,1.00
2018-07-29T14:31:54.852Z,1.00
2018-07-29T14:34:23.832Z,1.00
2018-07-29T14:36:52.693Z,1.00
2018-07-29T14:39:21.551Z,1.00
2018-07-29T14:41:50.375Z,1.00
2018-07-29T14:44:19.228Z,1.00
2018-07-29T14:46:48.067Z,1.00
2018-07-29T14:49:16.984Z,1.00
2018-07-29T14:51:45.804Z,1.00
2018-07-29T14:54:14.594Z,1.00
2018-07-29T14:56:43.398Z,1.00
2018-07-29T14:59:12.322Z,1.00
2018-07-29T15:01:41.155Z,1.00
2018-07-29T15:04:10.010Z,1.00
2018-07-29T15:06:38.896Z,1.00
2018-07-29T15:09:10.528Z,1.00
2018-07-29T15:11:39.428Z,1.00
2018-07-29T15:14:08.271Z,1.00
2018-07-29T15:16:37.077Z,1.00
2018-07-29T15:19:06.004Z,1.00
2018-07-29T15:21:34.810Z,1.00
2018-07-29T15:24:03.623Z,1.00
2018-07-29T15:26:32.472Z,1.00
2018-07-29T15:29:01.381Z,1.00
2018-07-29T15:33:59.021Z,1.00
2018-07-29T15:36:27.810Z,1.00
2018-07-29T15:38:56.692Z,1.00
2018-07-29T15:41:25.515Z,1.00
2018-07-29T15:43:54.379Z,1.00
2018-07-29T15:46:23.224Z,1.00
2018-07-29T15:48:52.392Z,1.00
2018-07-29T15:51:21.182Z,1.00
2018-07-29T15:53:50.065Z,1.00
2018-07-29T15:56:18.896Z,1.00
2018-07-29T15:58:47.762Z,1.00
2018-07-29T16:01:16.608Z,1.00
2018-07-29T16:03:45.415Z,1.00
2018-07-29T16:06:14.717Z,1.00
2018-07-29T16:08:43.583Z,1.00
2018-07-29T16:11:12.471Z,1.00
2018-07-29T16:13:41.273Z,1.00
2018-07-29T16:16:10.239Z,1.00
2018-07-29T16:18:39.080Z,1.00
2018-07-29T16:21:07.637Z,1.00
2018-07-29T16:23:36.496Z,1.00
2018-07-29T16:26:05.734Z,1.00
2018-07-29T16:28:34.543Z,1.00
2018-07-29T16:31:03.421Z,1.00
2018-07-29T16:33:32.289Z,1.00
2018-07-29T16:36:01.996Z,1.00
2018-07-29T16:38:30.865Z,1.00
2018-07-29T16:40:59.941Z,1.00
2018-07-29T16:43:28.771Z,1.00
2018-07-29T16:45:57.607Z,1.00
2018-07-29T16:48:26.517Z,1.00
2018-07-29T16:50:55.357Z,1.00
2018-07-29T16:53:24.199Z,1.00
2018-07-29T16:55:53.105Z,1.00
2018-07-29T16:58:21.924Z,1.00
2018-07-29T17:00:50.756Z,1.00
2018-07-29T17:03:19.576Z,1.00
2018-07-29T17:05:48.451Z,1.00
2018-07-29T17:08:17.259Z,1.00
2018-07-29T17:10:46.165Z,1.00
2018-07-29T17:13:15.046Z,1.00
2018-07-29T17:15:43.896Z,1.00
2018-07-29T17:18:12.739Z,1.00
2018-07-29T17:20:41.613Z,1.00
2018-07-29T17:23:10.448Z,1.00
2018-07-29T17:25:39.359Z,1.00
2018-07-29T17:28:08.264Z,1.00
2018-07-29T17:30:37.091Z,1.00
2018-07-29T17:33:09.536Z,1.00
2018-07-29T17:35:38.376Z,1.00
2018-07-29T17:38:07.232Z,1.00
2018-07-29T17:40:36.020Z,1.00
2018-07-29T17:43:05.267Z,1.00
2018-07-29T17:45:34.121Z,1.00
2018-07-29T17:48:03.012Z,1.00
2018-07-29T17:50:31.810Z,1.00
2018-07-29T17:53:00.737Z,1.00
2018-07-29T17:55:29.716Z,1.00
2018-07-29T17:57:58.588Z,1.00
2018-07-29T18:00:27.403Z,1.00
2018-07-29T18:02:56.233Z,1.00
2018-07-29T18:05:25.072Z,1.00
2018-07-29T18:07:54.164Z,1.00
2018-07-29T18:10:23.017Z,1.00
2018-07-29T18:12:51.884Z,1.00
2018-07-29T18:15:20.738Z,1.00
2018-07-29T18:17:49.563Z,1.00
2018-07-29T18:20:18.399Z,1.00
2018-07-29T18:22:47.296Z,1.00
2018-07-29T18:25:16.063Z,1.00
2018-07-29T18:27:44.984Z,1.00
2018-07-29T18:30:13.894Z,1.00
2018-07-29T18:32:42.725Z,1.00
2018-07-29T18:35:11.722Z,1.00
2018-07-29T18:37:40.590Z,1.00
2018-07-29T18:40:09.468Z,1.00
2018-07-29T18:42:38.352Z,1.00
2018-07-29T18:45:07.367Z,1.00
2018-07-29T18:47:36.240Z,1.00
2018-07-29T18:50:05.455Z,1.60
2018-07-29T18:52:34.269Z,2.90
2018-07-29T18:55:03.107Z,3.60
2018-07-29T18:57:31.928Z,4.30
2018-07-29T19:00:00.742Z,5.10
2018-07-29T19:02:29.599Z,5.50
2018-07-29T19:04:58.415Z,6.10
2018-07-29T19:07:27.227Z,6.30
2018-07-29T19:09:56.083Z,6.80
2018-07-29T19:12:24.983Z,7.20
2018-07-29T19:14:53.828Z,7.50
2018-07-29T19:17:22.926Z,8.00
2018-07-29T19:19:51.752Z,8.30
2018-07-29T19:22:22.489Z,8.70
2018-07-29T19:24:51.372Z,8.90
2018-07-29T19:27:20.376Z,8.90
2018-07-29T19:29:49.187Z,8.80
2018-07-29T19:32:18.031Z,9.40
2018-07-29T19:34:46.916Z,9.80
2018-07-29T19:37:15.804Z,10.30
2018-07-29T19:39:44.697Z,10.50
2018-07-29T19:42:13.610Z,10.70
2018-07-29T19:44:42.736Z,10.60
2018-07-29T19:47:11.617Z,10.80
2018-07-29T19:49:40.582Z,11.00
2018-07-29T19:52:09.435Z,11.20
2018-07-29T19:54:38.246Z,11.60
2018-07-29T19:57:07.106Z,11.70
2018-07-29T19:59:35.996Z,12.70
2018-07-29T20:02:04.812Z,11.90
2018-07-29T20:04:33.713Z,11.90
2018-07-29T20:07:02.631Z,12.00
2018-07-29T20:09:31.424Z,12.20
2018-07-29T20:12:00.301Z,12.20
2018-07-29T20:14:29.218Z,12.40
2018-07-29T20:16:58.044Z,12.40
2018-07-29T20:19:26.941Z,12.60
2018-07-29T20:21:55.766Z,12.60
2018-07-29T20:24:24.660Z,12.80
2018-07-29T20:26:53.531Z,13.20
2018-07-29T20:29:22.421Z,13.00
2018-07-29T20:31:51.301Z,13.00
2018-07-29T20:34:20.148Z,13.00
2018-07-29T20:36:48.989Z,13.00
2018-07-29T20:39:17.848Z,12.90
2018-07-29T20:41:46.683Z,13.10
2018-07-29T20:44:15.528Z,13.10
2018-07-29T20:46:44.343Z,13.20
2018-07-29T20:49:13.246Z,13.10
2018-07-29T20:51:42.083Z,13.30
2018-07-29T20:54:10.953Z,13.70
2018-07-29T20:56:41.349Z,13.50
2018-07-29T20:59:10.176Z,13.70
2018-07-29T21:01:39.026Z,13.60
2018-07-29T21:04:08.012Z,13.40
2018-07-29T21:06:37.091Z,13.50
2018-07-29T21:09:10.571Z,13.60
2018-07-29T21:11:39.432Z,14.40
2018-07-29T21:14:08.613Z,13.80
2018-07-29T21:16:37.491Z,13.80
2018-07-29T21:19:06.452Z,13.90
2018-07-29T21:21:35.287Z,13.80
2018-07-29T21:24:04.126Z,13.90
2018-07-29T21:26:32.979Z,14.10
2018-07-29T21:29:01.834Z,14.00
2018-07-29T21:31:30.739Z,14.20
2018-07-29T21:33:59.600Z,14.40
2018-07-29T21:36:28.391Z,14.00
2018-07-29T21:38:57.252Z,13.90
2018-07-29T21:41:26.104Z,14.00
2018-07-29T21:43:54.920Z,14.10
2018-07-29T21:46:23.785Z,14.10
2018-07-29T21:48:52.806Z,13.90
2018-07-29T21:51:21.688Z,14.30
2018-07-29T21:53:50.540Z,14.60
2018-07-29T21:56:19.421Z,14.60
2018-07-29T21:58:48.267Z,14.90
2018-07-29T22:01:17.079Z,15.00
2018-07-29T22:03:45.976Z,15.30
2018-07-29T22:06:14.814Z,15.50
2018-07-29T22:08:43.751Z,15.40
2018-07-29T22:11:12.541Z,15.70
2018-07-29T22:13:41.422Z,15.90
2018-07-29T22:16:10.290Z,16.10
2018-07-29T22:18:39.224Z,16.30
2018-07-29T22:21:08.063Z,16.40
2018-07-29T22:23:36.929Z,16.60
2018-07-29T22:26:11.197Z,16.70
2018-07-29T22:28:44.778Z,17.10
2018-07-29T22:31:23.634Z,17.50
2018-07-29T22:33:52.466Z,17.50
2018-07-29T22:36:21.287Z,17.40
2018-07-29T22:38:50.098Z,17.30
2018-07-29T22:41:18.959Z,17.30
2018-07-29T22:43:47.845Z,17.30
2018-07-29T22:46:16.630Z,17.20
2018-07-29T22:48:45.521Z,18.00
2018-07-29T22:51:14.343Z,18.20
2018-07-29T22:53:43.215Z,18.50
2018-07-29T22:56:12.075Z,18.70
2018-07-29T22:58:40.953Z,19.00
2018-07-29T23:01:09.812Z,19.40
2018-07-29T23:03:38.910Z,19.40
2018-07-29T23:06:07.739Z,19.50
2018-07-29T23:08:36.640Z,19.80
2018-07-29T23:11:05.480Z,20.00
2018-07-29T23:13:34.307Z,20.20
2018-07-29T23:16:03.185Z,20.30
2018-07-29T23:18:32.019Z,20.30
2018-07-29T23:21:00.857Z,21.80
2018-07-29T23:23:29.692Z,20.80
2018-07-29T23:25:58.517Z,21.10
2018-07-29T23:28:27.326Z,21.50
2018-07-29T23:30:56.139Z,21.50
2018-07-29T23:33:24.930Z,21.50
2018-07-29T23:35:53.833Z,21.60
2018-07-29T23:38:22.626Z,21.60
2018-07-29T23:40:51.564Z,22.00
2018-07-29T23:43:20.400Z,21.80
2018-07-29T23:45:49.195Z,21.90
2018-07-29T23:48:18.082Z,22.00
2018-07-29T23:50:46.923Z,22.40
2018-07-29T23:53:15.780Z,22.60
2018-07-29T23:55:44.574Z,22.50
2018-07-29T23:58:13.419Z,22.70
